Time;durP1;ratioP1;P1;durP2;ratioP2;P2;SDS_P1;SDS_P2;PMS_P1;PMS_P2;Temp;Humidity;BMP_temperature;BMP_pressure;BME280_temperature;BME280_humidity;BME280_pressure;Samples;Min_cycle;Max_cycle;Signal;HPM_P1;HPM_P2
2023/05/15 00:01:23;;;;;;;;;;;;;;;14.00;100.00;99048.09;5071038;28;19956;-79
2023/05/15 00:03:50;;;;;;;;;;;;;;;13.88;100.00;99049.50;5071986;28;19951;-79
2023/05/15 00:06:15;;;;;;;;;;;;;;;13.81;100.00;99056.50;5069073;28;19916;-79
2023/05/15 00:08:41;;;;;;;;;;;;;;;13.81;100.00;99051.22;5070415;28;19920;-79
2023/05/15 00:11:06;;;;;;;;;;;;;;;13.72;100.00;99044.31;5070040;28;19917;-78
2023/05/15 00:13:31;;;;;;;;;;;;;;;13.58;100.00;99037.91;5069974;28;20349;-78
2023/05/15 00:15:57;;;;;;;;;;;;;;;13.68;100.00;99046.47;5070030;28;19916;-75
2023/05/15 00:18:22;;;;;;;;;;;;;;;13.59;100.00;99046.69;5066641;28;19927;-77
2023/05/15 00:20:47;;;;;;;;;;;;;;;13.63;100.00;99048.00;5066685;28;19916;-78
2023/05/15 00:23:13;;;;;;;;;;;;;;;13.61;100.00;99042.84;5069960;28;19935;-77
2023/05/15 00:25:38;;;;;;;;;;;;;;;13.49;100.00;99037.13;5062819;28;19923;-77
2023/05/15 00:28:03;;;;;;;;;;;;;;;13.55;100.00;99040.09;5069923;28;20277;-77
2023/05/15 00:30:29;;;;;;;;;;;;;;;13.56;100.00;99042.56;5068173;28;20418;-77
2023/05/15 00:32:54;;;;;;;;;;;;;;;13.50;100.00;99041.44;5066358;28;19923;-77
2023/05/15 00:35:19;;;;;;;;;;;;;;;13.53;100.00;99038.44;5069079;28;19952;-77
2023/05/15 00:37:45;;;;;;;;;;;;;;;13.47;100.00;99039.16;5069370;28;19951;-77
2023/05/15 00:40:16;;;;;;;;;;;;;;;13.46;100.00;99042.78;5068467;28;20384;-77
2023/05/15 00:42:42;;;;;;;;;;;;;;;13.47;100.00;99044.44;5073097;28;19964;-73
2023/05/15 00:45:08;;;;;;;;;;;;;;;13.46;100.00;99040.13;5066137;28;19960;-77
2023/05/15 00:47:33;;;;;;;;;;;;;;;13.44;100.00;99039.47;5067662;28;20076;-77
2023/05/15 00:49:59;;;;;;;;;;;;;;;13.39;100.00;99036.53;5069406;28;19952;-78
2023/05/15 00:52:25;;;;;;;;;;;;;;;13.34;100.00;99028.28;5073610;28;20382;-77
2023/05/15 00:54:50;;;;;;;;;;;;;;;13.31;100.00;99028.59;5074740;28;19927;-78
2023/05/15 00:57:16;;;;;;;;;;;;;;;13.29;100.00;99025.31;5076861;28;20058;-79
2023/05/15 00:59:42;;;;;;;;;;;;;;;13.25;100.00;99028.50;5069358;28;19920;-79
2023/05/15 01:02:07;;;;;;;;;;;;;;;13.22;100.00;99029.66;5073897;28;19927;-78
2023/05/15 01:04:33;;;;;;;;;;;;;;;13.17;100.00;99025.88;5070599;28;19920;-77
2023/05/15 01:06:58;;;;;;;;;;;;;;;13.17;100.00;99025.88;5071723;28;19916;-77
2023/05/15 01:09:28;;;;;;;;;;;;;;;13.19;100.00;99019.41;5073037;28;19916;-74
2023/05/15 01:11:56;;;;;;;;;;;;;;;13.15;100.00;99015.44;5069751;28;19921;-75
2023/05/15 01:14:21;;;;;;;;;;;;;;;13.05;100.00;99012.97;5066644;28;19923;-78
2023/05/15 01:16:47;;;;;;;;;;;;;;;13.07;100.00;99010.16;5072364;28;19947;-78
2023/05/15 01:19:12;;;;;;;;;;;;;;;13.03;100.00;99020.25;5073210;28;20318;-77
2023/05/15 01:21:56;;;;;;;;;;;;;;;13.00;100.00;99017.13;5070669;28;19978;-79
2023/05/15 01:24:33;;;;;;;;;;;;;;;12.88;100.00;99016.69;5072011;28;19916;-78
2023/05/15 01:27:08;;;;;;;;;;;;;;;12.92;100.00;99023.28;5072685;28;19961;-78
2023/05/15 01:29:42;;;;;;;;;;;;;;;12.89;100.00;99023.63;5072036;28;19920;-78
2023/05/15 01:32:08;;;;;;;;;;;;;;;12.86;100.00;99017.81;5073054;28;19920;-78
2023/05/15 01:34:47;;;;;;;;;;;;;;;12.81;100.00;99021.00;5071001;28;19966;-78
2023/05/15 01:37:17;;;;;;;;;;;;;;;12.80;100.00;99014.03;5069194;28;19920;-79
2023/05/15 01:39:44;;;;;;;;;;;;;;;12.80;100.00;99014.03;5068431;28;19932;-78
2023/05/15 01:42:12;;;;;;;;;;;;;;;12.63;100.00;99013.25;5074842;28;19904;-79
2023/05/15 01:44:40;;;;;;;;;;;;;;;12.41;100.00;99016.63;5071385;28;20408;-78
2023/05/15 01:47:09;;;;;;;;;;;;;;;12.42;100.00;99020.91;5072708;28;19916;-78
2023/05/15 01:49:34;;;;;;;;;;;;;;;12.23;100.00;99018.59;5069509;28;19964;-78
2023/05/15 01:52:06;;;;;;;;;;;;;;;11.97;100.00;99017.94;5070787;28;20788;-78
2023/05/15 01:54:33;;;;;;;;;;;;;;;11.87;100.00;99018.09;5065286;28;19924;-78
2023/05/15 01:56:58;;;;;;;;;;;;;;;11.51;100.00;99017.50;5070995;28;20015;-79
2023/05/15 01:59:25;;;;;;;;;;;;;;;11.52;100.00;99021.81;5073380;28;20432;-79
2023/05/15 02:01:51;;;;;;;;;;;;;;;11.60;100.00;99024.50;5070770;28;19981;-78
2023/05/15 02:04:17;;;;;;;;;;;;;;;11.52;100.00;99027.09;5070047;28;19917;-78
2023/05/15 02:06:43;;;;;;;;;;;;;;;11.35;100.00;99020.13;5066702;28;19916;-79
2023/05/15 02:09:09;;;;;;;;;;;;;;;11.31;100.00;99024.06;5132159;22;19924;-78
2023/05/15 02:11:35;;;;;;;;;;;;;;;11.02;100.00;99024.44;5030387;28;19924;-77
2023/05/15 02:14:04;;;;;;;;;;;;;;;10.99;100.00;99030.88;5030542;28;19956;-78
2023/05/15 02:16:29;;;;;;;;;;;;;;;10.95;100.00;99029.53;5031946;28;19986;-78
2023/05/15 02:18:55;;;;;;;;;;;;;;;10.96;100.00;99025.91;5027486;28;20453;-77
2023/05/15 02:21:21;;;;;;;;;;;;;;;10.94;100.00;99025.25;5030435;28;20411;-78
2023/05/15 02:23:46;;;;;;;;;;;;;;;10.87;100.00;99021.56;5029958;28;20055;-77
2023/05/15 02:26:25;;;;;;;;;;;;;;;10.82;100.00;99013.31;5031818;28;19952;-77
2023/05/15 02:29:01;;;;;;;;;;;;;;;10.87;100.00;99018.09;5031481;28;19916;-77
2023/05/15 02:31:47;;;;;;;;;;;;;;;10.77;100.00;99015.59;5031798;28;19963;-77
2023/05/15 02:34:19;;;;;;;;;;;;;;;10.86;100.00;99019.91;5021109;28;19917;-77
2023/05/15 02:36:46;;;;;;;;;;;;;;;10.94;100.00;99016.50;5031091;28;19940;-76
2023/05/15 02:39:15;;;;;;;;;;;;;;;11.07;100.00;99006.34;5043159;28;19917;-76
2023/05/15 02:41:41;;;;;;;;;;;;;;;11.23;100.00;99006.38;5031172;28;19919;-76
2023/05/15 02:44:07;;;;;;;;;;;;;;;11.30;100.00;99001.28;5033519;28;19928;-76
2023/05/15 02:46:33;;;;;;;;;;;;;;;11.43;100.00;99001.63;5032771;28;19913;-77
2023/05/15 02:48:58;;;;;;;;;;;;;;;11.46;100.00;99006.59;5033438;28;19925;-78
2023/05/15 02:51:24;;;;;;;;;;;;;;;11.50;100.00;99007.94;5024305;28;19932;-77
2023/05/15 02:53:49;;;;;;;;;;;;;;;11.52;100.00;99000.69;5030335;28;19913;-78
2023/05/15 02:56:14;;;;;;;;;;;;;;;11.39;100.00;99002.94;5030968;28;20388;-77
2023/05/15 02:58:40;;;;;;;;;;;;;;;11.21;100.00;99003.06;5024920;28;19971;-76
2023/05/15 03:01:05;;;;;;;;;;;;;;;11.24;100.00;99004.56;5022123;28;19917;-78
2023/05/15 03:03:31;;;;;;;;;;;;;;;11.27;100.00;99007.72;5029966;28;19917;-79
2023/05/15 03:05:56;;;;;;;;;;;;;;;11.39;100.00;99001.13;5030595;28;19921;-78
2023/05/15 03:08:21;;;;;;;;;;;;;;;11.49;100.00;99011.56;5030554;28;19916;-79
2023/05/15 03:10:47;;;;;;;;;;;;;;;11.52;100.00;99011.25;5028052;28;19924;-79
2023/05/15 03:13:12;;;;;;;;;;;;;;;11.58;100.00;99007.97;5025596;28;20296;-79
2023/05/15 03:15:37;;;;;;;;;;;;;;;11.63;100.00;99008.28;5030187;28;19916;-79
2023/05/15 03:18:03;;;;;;;;;;;;;;;11.67;100.00;99011.41;5030673;28;20034;-79
2023/05/15 03:20:28;;;;;;;;;;;;;;;11.72;100.00;99001.22;5031164;28;20422;-78
2023/05/15 03:22:54;;;;;;;;;;;;;;;11.75;100.00;99012.31;5029077;28;20492;-78
2023/05/15 03:25:19;;;;;;;;;;;;;;;11.81;100.00;99019.59;5029796;28;19917;-78
2023/05/15 03:27:45;;;;;;;;;;;;;;;11.86;100.00;99013.81;5029747;28;19920;-78
2023/05/15 03:30:10;;;;;;;;;;;;;;;11.81;100.00;99006.38;5029086;28;19924;-77
2023/05/15 03:32:36;;;;;;;;;;;;;;;11.86;100.00;99006.69;5024792;28;19924;-78
2023/05/15 03:35:01;;;;;;;;;;;;;;;11.93;100.00;99013.97;5024920;28;19917;-78
2023/05/15 03:37:27;;;;;;;;;;;;;;;11.93;100.00;99014.81;5030262;28;19917;-78
2023/05/15 03:39:52;;;;;;;;;;;;;;;11.93;100.00;99014.81;5029399;28;19917;-78
2023/05/15 03:42:22;;;;;;;;;;;;;;;11.95;100.00;99012.84;5030085;28;19928;-78
2023/05/15 03:44:47;;;;;;;;;;;;;;;12.00;100.00;99014.97;5029703;28;19925;-79
2023/05/15 03:47:13;;;;;;;;;;;;;;;12.01;100.00;99014.00;5027701;28;19923;-78
2023/05/15 03:49:38;;;;;;;;;;;;;;;11.99;100.00;99005.38;5029908;28;19921;-79
2023/05/15 03:52:04;;;;;;;;;;;;;;;12.05;100.00;99012.66;5030378;28;19917;-78
2023/05/15 03:54:29;;;;;;;;;;;;;;;12.05;100.00;99008.19;5030588;28;19924;-75
2023/05/15 03:56:55;;;;;;;;;;;;;;;12.08;100.00;99002.56;5011486;28;19921;-78
2023/05/15 03:59:22;;;;;;;;;;;;;;;12.06;100.00;99009.03;5030381;28;19917;-78
2023/05/15 04:01:48;;;;;;;;;;;;;;;12.04;100.00;99011.81;5029680;28;19923;-75
2023/05/15 04:04:13;;;;;;;;;;;;;;;12.01;100.00;99003.41;5031013;28;19952;-78
2023/05/15 04:06:38;;;;;;;;;;;;;;;12.05;100.00;99013.50;5030383;28;19975;-77
2023/05/15 04:09:04;;;;;;;;;;;;;;;11.57;100.00;99011.59;5030403;28;19917;-78
2023/05/15 04:11:29;;;;;;;;;;;;;;;11.51;100.00;99004.31;5028214;28;19936;-78
2023/05/15 04:13:54;;;;;;;;;;;;;;;11.48;100.00;99004.63;5027815;28;19917;-78
2023/05/15 04:16:20;;;;;;;;;;;;;;;11.59;100.00;99006.97;5030053;28;20377;-77
2023/05/15 04:18:45;;;;;;;;;;;;;;;11.64;100.00;98996.72;5024244;28;20014;-76
2023/05/15 04:21:10;;;;;;;;;;;;;;;11.69;100.00;99005.00;5030140;28;20399;-78
2023/05/15 04:23:36;;;;;;;;;;;;;;;11.67;100.00;98998.22;5029765;28;20048;-77
2023/05/15 04:26:01;;;;;;;;;;;;;;;11.76;100.00;99003.41;5030403;28;19963;-77
2023/05/15 04:28:26;;;;;;;;;;;;;;;11.80;100.00;98999.41;5033318;28;19929;-79
2023/05/15 04:30:52;;;;;;;;;;;;;;;11.91;100.00;99000.91;5035221;28;20298;-78
2023/05/15 04:33:17;;;;;;;;;;;;;;;12.00;100.00;98999.09;5035007;28;19924;-77
2023/05/15 04:35:42;;;;;;;;;;;;;;;12.07;100.00;99002.75;5037397;28;19955;-79
2023/05/15 04:38:08;;;;;;;;;;;;;;;12.08;100.00;99002.56;5035515;28;19921;-79
2023/05/15 04:40:33;;;;;;;;;;;;;;;12.09;100.00;98998.09;5035396;28;20270;-78
2023/05/15 04:42:58;;;;;;;;;;;;;;;12.13;100.00;98996.81;5034476;28;20008;-78
2023/05/15 04:45:24;;;;;;;;;;;;;;;12.19;100.00;98998.78;5035344;28;19917;-78
2023/05/15 04:47:49;;;;;;;;;;;;;;;12.09;100.00;98998.09;5033476;28;20051;-79
2023/05/15 04:50:15;;;;;;;;;;;;;;;12.03;100.00;98998.75;5031474;28;19963;-78
2023/05/15 04:52:41;;;;;;;;;;;;;;;12.11;100.00;99001.41;5029167;28;19917;-78
2023/05/15 04:55:07;;;;;;;;;;;;;;;12.13;100.00;98999.44;5032597;28;19913;-78
2023/05/15 04:57:33;;;;;;;;;;;;;;;12.00;100.00;99001.75;5031570;28;20250;-78
2023/05/15 04:59:58;;;;;;;;;;;;;;;12.02;100.00;99002.41;5033482;28;19955;-78
2023/05/15 05:02:24;;;;;;;;;;;;;;;12.07;100.00;99005.41;5033639;28;20011;-78
2023/05/15 05:04:49;;;;;;;;;;;;;;;12.10;100.00;99002.41;5032947;28;20024;-78
2023/05/15 05:07:15;;;;;;;;;;;;;;;12.14;100.00;99004.53;5033331;28;19917;-78
2023/05/15 05:09:40;;;;;;;;;;;;;;;12.02;100.00;99005.88;5031773;28;19917;-78
2023/05/15 05:12:06;;;;;;;;;;;;;;;12.10;100.00;99010.34;5033666;28;19917;-78
2023/05/15 05:14:31;;;;;;;;;;;;;;;12.16;100.00;99010.50;5032901;28;20323;-77
2023/05/15 05:16:57;;;;;;;;;;;;;;;12.21;100.00;99017.94;5033020;28;19917;-77
2023/05/15 05:19:22;;;;;;;;;;;;;;;12.27;100.00;99022.56;5033393;28;19920;-78
2023/05/15 05:21:47;;;;;;;;;;;;;;;12.29;100.00;99025.88;5032614;28;19920;-77
2023/05/15 05:24:14;;;;;;;;;;;;;;;12.22;100.00;99024.88;5034950;28;19921;-75
2023/05/15 05:26:42;;;;;;;;;;;;;;;12.05;100.00;99015.31;5031545;28;19925;-76
2023/05/15 05:29:07;;;;;;;;;;;;;;;11.88;100.00;99023.22;5033894;28;20354;-73
2023/05/15 05:31:32;;;;;;;;;;;;;;;11.70;100.00;99022.50;5028703;28;19924;-80
2023/05/15 05:33:58;;;;;;;;;;;;;;;11.83;100.00;99014.97;5029962;28;20024;-77
2023/05/15 05:36:23;;;;;;;;;;;;;;;11.77;100.00;99020.91;5028811;28;19920;-77
2023/05/15 05:38:48;;;;;;;;;;;;;;;11.88;100.00;99022.41;5028304;28;19932;-78
2023/05/15 05:41:14;;;;;;;;;;;;;;;12.05;100.00;99023.25;5031281;28;19921;-78
2023/05/15 05:43:39;;;;;;;;;;;;;;;12.12;100.00;99022.41;5031688;28;19978;-74
2023/05/15 05:46:05;;;;;;;;;;;;;;;12.20;100.00;99026.84;5175532;22;19935;-74
2023/05/15 05:48:30;;;;;;;;;;;;;;;12.31;100.00;99021.25;5067581;28;19921;-76
2023/05/15 05:50:56;;;;;;;;;;;;;;;12.09;100.00;99025.38;5049178;28;19974;-75
2023/05/15 05:53:21;;;;;;;;;;;;;;;11.96;100.00;99029.53;5048093;28;19924;-77
2023/05/15 05:55:47;;;;;;;;;;;;;;;11.99;100.00;99019.44;5049415;28;19921;-75
2023/05/15 05:58:12;;;;;;;;;;;;;;;12.08;100.00;99022.88;5051117;28;19917;-75
2023/05/15 06:00:37;;;;;;;;;;;;;;;12.02;100.00;99021.72;5049916;28;19920;-75
2023/05/15 06:03:03;;;;;;;;;;;;;;;12.10;100.00;99016.47;5045380;28;19921;-75
2023/05/15 06:05:29;;;;;;;;;;;;;;;12.22;100.00;99014.31;5051580;28;19917;-78
2023/05/15 06:07:55;;;;;;;;;;;;;;;12.34;100.00;99010.31;5052431;28;19920;-77
2023/05/15 06:10:21;;;;;;;;;;;;;;;12.37;100.00;99001.25;5051529;28;20713;-78
2023/05/15 06:12:47;;;;;;;;;;;;;;;12.51;100.00;99006.66;5051874;28;19920;-78
2023/05/15 06:15:12;;;;;;;;;;;;;;;12.17;100.00;99011.34;5052508;28;20008;-78
2023/05/15 06:17:37;;;;;;;;;;;;;;;11.97;100.00;99021.41;5052255;28;20364;-79
2023/05/15 06:20:13;;;;;;;;;;;;;;;12.05;100.00;99017.94;5055231;28;19921;-78
2023/05/15 06:22:38;;;;;;;;;;;;;;;11.88;100.00;99017.13;5055368;28;19916;-78
2023/05/15 06:25:04;;;;;;;;;;;;;;;11.99;100.00;99023.91;5055318;28;19920;-78
2023/05/15 06:27:30;;;;;;;;;;;;;;;12.13;100.00;99012.66;5056039;28;19924;-79
2023/05/15 06:29:55;;;;;;;;;;;;;;;12.22;100.00;99020.44;5055405;28;20285;-79
2023/05/15 06:32:21;;;;;;;;;;;;;;;12.28;100.00;99018.94;5052918;28;19927;-78
2023/05/15 06:34:46;;;;;;;;;;;;;;;12.30;100.00;99022.25;5056093;28;20025;-77
2023/05/15 06:37:11;;;;;;;;;;;;;;;12.45;100.00;99012.63;5051772;28;20365;-78
2023/05/15 06:39:37;;;;;;;;;;;;;;;12.60;100.00;99018.91;5051461;28;20377;-79
2023/05/15 06:42:02;;;;;;;;;;;;;;;12.71;100.00;99015.91;5051925;28;19960;-78
2023/05/15 06:44:29;;;;;;;;;;;;;;;12.59;100.00;99011.94;5051626;28;19916;-78
2023/05/15 06:46:55;;;;;;;;;;;;;;;12.62;100.00;99016.91;5050896;28;19943;-78
2023/05/15 06:49:20;;;;;;;;;;;;;;;12.88;100.00;99010.56;5045170;28;19917;-80
2023/05/15 06:51:46;;;;;;;;;;;;;;;12.96;100.00;99013.19;5042022;28;20261;-79
2023/05/15 06:54:11;;;;;;;;;;;;;;;13.20;100.00;99001.66;5039122;28;19924;-79
2023/05/15 06:56:36;;;;;;;;;;;;;;;13.39;100.00;99004.72;5039592;28;19919;-79
2023/05/15 06:59:02;;;;;;;;;;;;;;;13.54;100.00;99007.47;5044605;28;20288;-79
2023/05/15 07:01:27;;;;;;;;;;;;;;;13.65;100.00;99003.59;5044803;28;20053;-82
2023/05/15 07:03:53;;;;;;;;;;;;;;;13.79;100.00;99003.63;5048395;28;20015;-78
2023/05/15 07:06:18;;;;;;;;;;;;;;;13.78;100.00;99009.13;5052026;28;20392;-80
2023/05/15 07:08:43;;;;;;;;;;;;;;;13.58;100.00;99007.94;5047891;28;19921;-80
2023/05/15 07:11:09;;;;;;;;;;;;;;;13.40;100.00;99006.38;5049490;28;20563;-80
2023/05/15 07:13:34;;;;;;;;;;;;;;;13.30;100.00;98992.53;5051918;28;19916;-79
2023/05/15 07:16:01;;;;;;;;;;;;;;;13.18;100.00;98991.25;5050695;28;19916;-80
2023/05/15 07:18:27;;;;;;;;;;;;;;;13.36;100.00;98983.88;5046004;28;19975;-78
2023/05/15 07:20:52;;;;;;;;;;;;;;;13.31;100.00;98990.72;5046536;28;19928;-77
2023/05/15 07:23:17;;;;;;;;;;;;;;;13.57;100.00;98985.06;5047437;28;20359;-79
2023/05/15 07:25:43;;;;;;;;;;;;;;;13.55;100.00;98981.78;5034031;28;20472;-79
2023/05/15 07:28:08;;;;;;;;;;;;;;;13.57;100.00;98977.13;5047861;28;19927;-82
2023/05/15 07:30:33;;;;;;;;;;;;;;;13.69;100.00;98981.00;5048706;28;19917;-81
2023/05/15 07:32:59;;;;;;;;;;;;;;;13.77;100.00;98980.97;5044116;28;19963;-79
2023/05/15 07:35:25;;;;;;;;;;;;;;;13.97;100.00;98982.13;5042632;28;20290;-80
2023/05/15 07:37:50;;;;;;;;;;;;;;;13.91;100.00;98988.13;5045384;28;19956;-81
2023/05/15 07:40:15;;;;;;;;;;;;;;;13.98;100.00;98983.78;5050409;28;20281;-81
2023/05/15 07:42:44;;;;;;;;;;;;;;;13.92;100.00;98981.84;5050896;28;19917;-81
2023/05/15 07:45:10;;;;;;;;;;;;;;;13.99;100.00;98984.59;5051346;28;19924;-81
2023/05/15 07:47:35;;;;;;;;;;;;;;;14.15;100.00;98979.97;5049605;28;19925;-81
2023/05/15 07:50:01;;;;;;;;;;;;;;;14.32;100.00;98989.44;5050970;28;19916;-81
2023/05/15 07:52:26;;;;;;;;;;;;;;;14.41;100.00;98978.78;5051808;28;19916;-79
2023/05/15 07:57:33;;;;;;;;;;;;;;;14.51;100.00;98976.69;4294724;26;19927;-81
2023/05/15 08:00:01;;;;;;;;;;;;;;;14.57;100.00;98989.25;5067784;28;19912;-82
2023/05/15 08:02:26;;;;;;;;;;;;;;;14.61;100.00;98986.03;5053267;28;19919;-81
2023/05/15 08:04:51;;;;;;;;;;;;;;;14.68;100.00;98986.13;5068272;28;19924;-81
2023/05/15 08:07:17;;;;;;;;;;;;;;;14.78;100.00;98981.38;5054373;28;19913;-82
2023/05/15 08:09:42;;;;;;;;;;;;;;;14.86;100.00;98978.63;5056552;28;19912;-81
2023/05/15 08:12:20;;;;;;;;;;;;;;;15.01;100.00;98982.09;5056103;28;19979;-82
2023/05/15 08:14:47;;;;;;;;;;;;;;;15.16;100.00;98979.41;5053297;28;19920;-81
2023/05/15 08:17:12;;;;;;;;;;;;;;;15.32;100.00;98978.38;5054894;28;20373;-82
2023/05/15 08:19:38;;;;;;;;;;;;;;;15.45;100.00;98983.84;5052943;28;19919;-81
2023/05/15 08:22:03;;;;;;;;;;;;;;;15.56;100.00;98975.41;5052369;28;19913;-83
2023/05/15 08:24:28;;;;;;;;;;;;;;;15.42;100.00;98973.59;5052423;28;19913;-82
2023/05/15 08:26:54;;;;;;;;;;;;;;;15.48;100.00;98963.03;5050531;28;19912;-83
2023/05/15 08:29:19;;;;;;;;;;;;;;;15.46;100.00;98970.38;5052634;28;19912;-83
2023/05/15 08:31:44;;;;;;;;;;;;;;;15.62;100.00;98963.19;5051996;28;19944;-82
2023/05/15 08:34:10;;;;;;;;;;;;;;;15.74;100.00;98954.50;5051093;28;19917;-82
2023/05/15 08:36:35;;;;;;;;;;;;;;;15.83;100.00;98961.38;5050407;28;19921;-82
2023/05/15 08:39:01;;;;;;;;;;;;;;;15.90;100.00;98964.09;5050272;28;19924;-82
2023/05/15 08:41:36;;;;;;;;;;;;;;;15.94;100.00;98966.19;5053027;28;19936;-82
2023/05/15 08:44:03;;;;;;;;;;;;;;;16.06;100.00;98965.66;5053678;28;20439;-81
2023/05/15 08:46:28;;;;;;;;;;;;;;;16.19;100.00;98961.28;5050147;28;20003;-82
2023/05/15 08:48:55;;;;;;;;;;;;;;;16.18;100.00;98964.13;5052394;28;20876;-83
2023/05/15 08:51:21;;;;;;;;;;;;;;;16.07;100.00;98962.81;5051833;28;19951;-82
2023/05/15 08:53:47;;;;;;;;;;;;;;;16.12;100.00;98960.38;5051451;28;19913;-82
2023/05/15 08:56:12;;;;;;;;;;;;;;;16.10;100.00;98958.94;5050435;28;20023;-83
2023/05/15 08:58:38;;;;;;;;;;;;;;;16.13;100.00;98955.91;5041599;28;20423;-81
2023/05/15 09:01:04;;;;;;;;;;;;;;;16.21;100.00;98953.91;5052036;28;19948;-81
2023/05/15 09:03:29;;;;;;;;;;;;;;;16.12;100.00;98940.94;5046708;28;20297;-82
2023/05/15 09:05:56;;;;;;;;;;;;;;;16.25;100.00;98939.19;5049763;28;19936;-82
2023/05/15 09:08:22;;;;;;;;;;;;;;;16.21;100.00;98937.09;5051632;28;19924;-82
2023/05/15 09:10:51;;;;;;;;;;;;;;;16.34;100.00;98938.03;5051395;28;20003;-81
2023/05/15 09:13:17;;;;;;;;;;;;;;;16.43;100.00;98941.38;5052353;28;20399;-82
2023/05/15 09:15:44;;;;;;;;;;;;;;;16.53;100.00;98941.84;5055194;28;19913;-82
2023/05/15 09:18:13;;;;;;;;;;;;;;;16.57;100.00;98943.09;5047344;28;19924;-82
2023/05/15 09:20:39;;;;;;;;;;;;;;;16.66;100.00;98941.97;5054720;28;19916;-81
2023/05/15 09:23:05;;;;;;;;;;;;;;;16.65;100.00;98940.31;5055245;28;20369;-82
2023/05/15 09:25:33;;;;;;;;;;;;;;;16.71;100.00;98933.38;5054211;28;20225;-82
2023/05/15 09:27:59;;;;;;;;;;;;;;;16.75;100.00;98930.09;5054860;28;19913;-81
2023/05/15 09:30:25;;;;;;;;;;;;;;;16.85;100.00;98924.41;5053731;28;19913;-81
2023/05/15 09:32:51;;;;;;;;;;;;;;;16.92;100.00;98933.25;5054937;28;19916;-82
2023/05/15 09:35:27;;;;;;;;;;;;;;;16.97;100.00;98927.31;5055190;28;20372;-81
2023/05/15 09:37:56;;;;;;;;;;;;;;;17.08;100.00;98924.13;5054492;28;19924;-81
2023/05/15 09:40:21;;;;;;;;;;;;;;;17.15;100.00;98924.94;5052357;28;20317;-81
2023/05/15 09:42:50;;;;;;;;;;;;;;;17.19;100.00;98927.03;5054318;28;19966;-81
2023/05/15 09:45:16;;;;;;;;;;;;;;;17.27;100.00;98928.66;5054733;28;19926;-81
2023/05/15 09:47:42;;;;;;;;;;;;;;;17.38;100.00;98925.41;5050441;28;20364;-81
2023/05/15 09:50:08;;;;;;;;;;;;;;;17.47;100.00;98932.22;5053998;28;19913;-81
2023/05/15 09:52:35;;;;;;;;;;;;;;;17.48;100.00;98917.88;5055470;28;19940;-81
2023/05/15 09:55:06;;;;;;;;;;;;;;;17.45;100.00;98928.09;5057980;28;19935;-80
2023/05/15 09:57:31;;;;;;;;;;;;;;;17.51;100.00;98928.13;5053768;28;19920;-80
2023/05/15 10:00:00;;;;;;;;;;;;;;;17.61;100.00;98934.97;5055964;28;20003;-81
2023/05/15 10:02:34;;;;;;;;;;;;;;;17.67;100.00;98928.81;5053374;28;19919;-79
2023/05/15 10:04:59;;;;;;;;;;;;;;;17.75;100.00;98931.25;4352759;28;10000797;-81
2023/05/15 10:07:31;;;;;;;;;;;;;;;17.83;100.00;98923.91;5053086;28;19917;-81
2023/05/15 10:09:58;;;;;;;;;;;;;;;17.93;100.00;98923.47;4347747;28;10000677;-79
2023/05/15 10:12:42;;;;;;;;;;;;;;;18.01;100.00;98925.97;5043251;28;19969;-79
2023/05/15 10:15:15;;;;;;;;;;;;;;;18.07;100.00;98926.97;5046346;28;19917;-78
2023/05/15 10:17:41;;;;;;;;;;;;;;;18.10;100.00;98924.72;5062533;28;20458;-81
2023/05/15 10:20:07;;;;;;;;;;;;;;;18.16;100.00;98915.88;5051954;28;19947;-78
2023/05/15 10:22:35;;;;;;;;;;;;;;;18.24;100.00;98914.84;5050298;28;19912;-79
2023/05/15 10:25:03;;;;;;;;;;;;;;;18.26;100.00;98915.47;5048608;28;19963;-78
2023/05/15 10:27:29;;;;;;;;;;;;;;;18.23;100.00;98914.03;5049083;28;20327;-78
2023/05/15 10:29:56;;;;;;;;;;;;;;;18.25;100.00;98911.97;5047352;28;19917;-82
2023/05/15 10:32:21;;;;;;;;;;;;;;;18.33;100.00;98914.41;5049892;28;19924;-80
2023/05/15 10:34:47;;;;;;;;;;;;;;;18.47;100.00;98915.22;5044879;28;19921;-83
2023/05/15 10:37:13;;;;;;;;;;;;;;;18.58;100.00;98909.25;5050498;28;19917;-79
2023/05/15 10:39:39;;;;;;;;;;;;;;;18.70;100.00;98904.09;5050107;28;20003;-78
2023/05/15 10:42:06;;;;;;;;;;;;;;;18.75;100.00;98902.44;5052159;28;20320;-81
2023/05/15 10:44:32;;;;;;;;;;;;;;;18.78;96.75;98898.53;5051859;28;19917;-80
2023/05/15 10:46:57;;;;;;;;;;;;;;;18.79;95.35;98898.28;5051427;28;20012;-80
2023/05/15 10:49:23;;;;;;;;;;;;;;;18.78;93.09;98901.19;5051712;28;20352;-80
2023/05/15 10:51:48;;;;;;;;;;;;;;;18.73;89.99;98898.34;5050239;28;20419;-80
2023/05/15 10:54:14;;;;;;;;;;;;;;;18.79;92.74;98900.16;5051833;28;19913;-80
2023/05/15 10:56:40;;;;;;;;;;;;;;;18.84;93.64;98889.66;5049799;28;20288;-80
2023/05/15 10:59:07;;;;;;;;;;;;;;;18.94;95.46;98879.31;5051135;28;19925;-80
2023/05/15 11:01:33;;;;;;;;;;;;;;;19.03;94.88;98885.22;5051504;28;19912;-80
2023/05/15 11:04:06;;;;;;;;;;;;;;;19.10;94.42;98884.19;5049781;28;19927;-79
2023/05/15 11:06:32;;;;;;;;;;;;;;;19.16;92.80;98883.31;5051228;28;20392;-81
2023/05/15 11:09:16;;;;;;;;;;;;;;;19.27;93.87;98878.31;5049932;28;20288;-80
2023/05/15 11:11:51;;;;;;;;;;;;;;;19.31;93.04;98885.72;5047435;28;19912;-80
2023/05/15 11:14:16;;;;;;;;;;;;;;;19.40;90.61;98873.72;5048021;28;19913;-80
2023/05/15 11:16:51;;;;;;;;;;;;;;;19.50;85.87;98870.59;5049531;28;20296;-80
2023/05/15 11:19:30;;;;;;;;;;;;;;;19.51;85.81;98861.53;5047747;28;19924;-79
2023/05/15 11:21:56;;;;;;;;;;;;;;;19.54;86.02;98863.78;5048486;28;20336;-81
2023/05/15 11:24:25;;;;;;;;;;;;;;;19.58;86.75;98859.63;5050670;28;19923;-81
2023/05/15 11:26:56;;;;;;;;;;;;;;;19.65;85.38;98860.41;5051767;28;19924;-80
2023/05/15 11:29:22;;;;;;;;;;;;;;;19.75;85.54;98850.03;5046531;28;19912;-80
2023/05/15 11:31:47;;;;;;;;;;;;;;;19.83;85.56;98852.44;5049732;28;20391;-79
2023/05/15 11:34:12;;;;;;;;;;;;;;;19.94;85.39;98845.53;5051490;28;19919;-81
2023/05/15 11:36:42;;;;;;;;;;;;;;;20.09;84.34;98845.22;5049309;28;19916;-79
2023/05/15 11:39:11;;;;;;;;;;;;;;;20.21;81.50;98843.41;5043723;28;20656;-77
2023/05/15 11:41:38;;;;;;;;;;;;;;;20.25;80.18;98839.28;5042443;28;19920;-77
2023/05/15 11:44:03;;;;;;;;;;;;;;;20.27;79.83;98837.16;5044463;28;19917;-77
2023/05/15 11:46:30;;;;;;;;;;;;;;;20.33;80.46;98833.63;5053146;28;19916;-76
2023/05/15 11:48:57;;;;;;;;;;;;;;;20.42;81.16;98829.63;5049375;28;19988;-77
2023/05/15 11:51:23;;;;;;;;;;;;;;;20.54;77.24;98827.84;5052752;28;20257;-79
2023/05/15 11:53:50;;;;;;;;;;;;;;;20.65;75.67;98832.44;5049722;28;19919;-78
2023/05/15 11:56:17;;;;;;;;;;;;;;;20.82;73.14;98830.78;5051113;28;19913;-79
2023/05/15 11:58:42;;;;;;;;;;;;;;;20.89;73.03;98824.50;5052485;28;19917;-79
2023/05/15 12:01:09;;;;;;;;;;;;;;;20.94;73.29;98827.34;5061779;28;19912;-79
2023/05/15 12:03:36;;;;;;;;;;;;;;;21.05;70.98;98834.59;5056758;28;19916;-78
2023/05/15 12:06:02;;;;;;;;;;;;;;;21.14;72.33;98827.88;5047584;28;19939;-78
2023/05/15 12:08:35;;;;;;;;;;;;;;;21.28;67.26;98829.34;5049790;28;19913;-79
2023/05/15 12:11:01;;;;;;;;;;;;;;;21.41;69.94;98823.78;5046578;28;20003;-81
2023/05/15 12:13:27;;;;;;;;;;;;;;;21.61;69.53;98818.13;5047088;28;19996;-79
2023/05/15 12:15:52;;;;;;;;;;;;;;;21.83;69.88;98815.66;5049593;28;20395;-81
2023/05/15 12:18:18;;;;;;;;;;;;;;;21.93;68.58;98821.28;5048251;28;20672;-80
2023/05/15 12:20:47;;;;;;;;;;;;;;;21.94;65.57;98812.16;5050088;28;19955;-81
2023/05/15 12:23:16;;;;;;;;;;;;;;;22.08;64.98;98810.91;5046148;28;19960;-81
2023/05/15 12:25:42;;;;;;;;;;;;;;;22.30;66.25;98793.13;5048199;28;19917;-78
2023/05/15 12:28:07;;;;;;;;;;;;;;;22.37;64.30;98801.88;5051706;28;20351;-80
2023/05/15 12:30:33;;;;;;;;;;;;;;;22.39;62.45;98799.75;5043024;28;19920;-78
2023/05/15 12:33:03;;;;;;;;;;;;;;;22.50;63.38;98794.63;5048837;28;19912;-79
2023/05/15 12:35:29;;;;;;;;;;;;;;;22.67;63.37;98796.31;5050274;28;19912;-80
2023/05/15 12:37:54;;;;;;;;;;;;;;;22.79;62.81;98799.00;5048621;28;20011;-80